sensor_id;sensor_type;location;lat;lon;timestamp;temperature;humidity
47618;DHT22;33336;36.728;-4.414;2023-04-25T00:04:37;21.80;93.30
47618;DHT22;33336;36.728;-4.414;2023-04-25T00:09:41;21.90;92.80
47618;DHT22;33336;36.728;-4.414;2023-04-25T00:14:45;21.70;92.50
47618;DHT22;33336;36.728;-4.414;2023-04-25T00:19:51;21.80;91.70
47618;DHT22;33336;36.728;-4.414;2023-04-25T00:24:53;21.70;91.40
47618;DHT22;33336;36.728;-4.414;2023-04-25T00:30:00;21.70;91.50
47618;DHT22;33336;36.728;-4.414;2023-04-25T00:35:04;21.60;91.30
47618;DHT22;33336;36.728;-4.414;2023-04-25T00:40:07;21.70;91.20
47618;DHT22;33336;36.728;-4.414;2023-04-25T00:45:13;21.40;91.30
47618;DHT22;33336;36.728;-4.414;2023-04-25T00:50:17;21.60;91.40
47618;DHT22;33336;36.728;-4.414;2023-04-25T00:55:19;21.70;91.40
47618;DHT22;33336;36.728;-4.414;2023-04-25T01:00:24;21.60;91.50
47618;DHT22;33336;36.728;-4.414;2023-04-25T01:05:27;21.60;91.40
47618;DHT22;33336;36.728;-4.414;2023-04-25T01:10:31;21.60;91.00
47618;DHT22;33336;36.728;-4.414;2023-04-25T01:15:35;21.50;91.00
47618;DHT22;33336;36.728;-4.414;2023-04-25T01:20:39;21.30;90.90
47618;DHT22;33336;36.728;-4.414;2023-04-25T01:25:44;21.30;91.10
47618;DHT22;33336;36.728;-4.414;2023-04-25T01:30:48;21.30;91.30
47618;DHT22;33336;36.728;-4.414;2023-04-25T01:35:50;21.10;91.30
47618;DHT22;33336;36.728;-4.414;2023-04-25T01:40:55;20.90;91.00
47618;DHT22;33336;36.728;-4.414;2023-04-25T01:45:59;20.80;91.30
47618;DHT22;33336;36.728;-4.414;2023-04-25T01:51:03;21.00;91.10
47618;DHT22;33336;36.728;-4.414;2023-04-25T01:56:08;21.10;91.60
47618;DHT22;33336;36.728;-4.414;2023-04-25T02:01:12;21.20;91.90
47618;DHT22;33336;36.728;-4.414;2023-04-25T02:06:14;20.60;94.10
47618;DHT22;33336;36.728;-4.414;2023-04-25T02:11:19;20.80;92.50
47618;DHT22;33336;36.728;-4.414;2023-04-25T02:16:22;21.00;91.40
47618;DHT22;33336;36.728;-4.414;2023-04-25T02:21:26;21.10;91.60
47618;DHT22;33336;36.728;-4.414;2023-04-25T02:26:30;20.60;91.40
47618;DHT22;33336;36.728;-4.414;2023-04-25T02:31:33;20.70;91.10
47618;DHT22;33336;36.728;-4.414;2023-04-25T02:36:36;20.40;90.50
47618;DHT22;33336;36.728;-4.414;2023-04-25T02:41:41;20.50;88.20
47618;DHT22;33336;36.728;-4.414;2023-04-25T02:46:44;20.50;86.70
47618;DHT22;33336;36.728;-4.414;2023-04-25T02:51:46;20.70;86.80
47618;DHT22;33336;36.728;-4.414;2023-04-25T02:56:51;20.80;85.60
47618;DHT22;33336;36.728;-4.414;2023-04-25T03:01:55;20.60;84.90
47618;DHT22;33336;36.728;-4.414;2023-04-25T03:06:58;20.70;86.70
47618;DHT22;33336;36.728;-4.414;2023-04-25T03:12:02;20.70;86.10
47618;DHT22;33336;36.728;-4.414;2023-04-25T03:17:05;20.70;85.20
47618;DHT22;33336;36.728;-4.414;2023-04-25T03:22:09;20.70;84.00
47618;DHT22;33336;36.728;-4.414;2023-04-25T03:27:13;20.70;83.70
47618;DHT22;33336;36.728;-4.414;2023-04-25T03:32:16;20.50;84.10
47618;DHT22;33336;36.728;-4.414;2023-04-25T03:37:19;20.60;84.20
47618;DHT22;33336;36.728;-4.414;2023-04-25T03:42:24;20.60;84.30
47618;DHT22;33336;36.728;-4.414;2023-04-25T03:47:27;20.30;83.00
47618;DHT22;33336;36.728;-4.414;2023-04-25T03:52:30;20.40;83.20
47618;DHT22;33336;36.728;-4.414;2023-04-25T03:57:35;20.40;83.40
47618;DHT22;33336;36.728;-4.414;2023-04-25T04:02:38;20.20;82.40
47618;DHT22;33336;36.728;-4.414;2023-04-25T04:07:41;20.40;83.20
47618;DHT22;33336;36.728;-4.414;2023-04-25T04:12:46;20.30;82.80
47618;DHT22;33336;36.728;-4.414;2023-04-25T04:17:49;20.30;83.10
47618;DHT22;33336;36.728;-4.414;2023-04-25T04:22:52;20.30;83.00
47618;DHT22;33336;36.728;-4.414;2023-04-25T04:27:57;20.40;83.00
47618;DHT22;33336;36.728;-4.414;2023-04-25T04:33:00;20.30;83.30
47618;DHT22;33336;36.728;-4.414;2023-04-25T04:38:04;20.30;83.40
47618;DHT22;33336;36.728;-4.414;2023-04-25T04:43:08;20.20;83.70
47618;DHT22;33336;36.728;-4.414;2023-04-25T04:48:11;20.20;83.20
47618;DHT22;33336;36.728;-4.414;2023-04-25T04:53:15;20.10;83.20
47618;DHT22;33336;36.728;-4.414;2023-04-25T04:58:20;20.20;83.50
47618;DHT22;33336;36.728;-4.414;2023-04-25T05:03:22;20.20;83.90
47618;DHT22;33336;36.728;-4.414;2023-04-25T05:08:26;20.10;83.40
47618;DHT22;33336;36.728;-4.414;2023-04-25T05:13:31;20.20;82.70
47618;DHT22;33336;36.728;-4.414;2023-04-25T05:18:34;20.00;82.50
47618;DHT22;33336;36.728;-4.414;2023-04-25T05:23:37;19.80;82.30
47618;DHT22;33336;36.728;-4.414;2023-04-25T05:28:42;19.50;82.20
47618;DHT22;33336;36.728;-4.414;2023-04-25T05:33:45;19.30;82.30
47618;DHT22;33336;36.728;-4.414;2023-04-25T05:38:48;19.20;82.20
47618;DHT22;33336;36.728;-4.414;2023-04-25T05:43:53;19.30;81.20
47618;DHT22;33336;36.728;-4.414;2023-04-25T05:48:56;19.50;80.70
47618;DHT22;33336;36.728;-4.414;2023-04-25T05:53:59;19.80;80.50
47618;DHT22;33336;36.728;-4.414;2023-04-25T05:59:04;19.90;80.00
47618;DHT22;33336;36.728;-4.414;2023-04-25T06:04:07;19.80;79.90
47618;DHT22;33336;36.728;-4.414;2023-04-25T06:09:11;19.60;79.70
47618;DHT22;33336;36.728;-4.414;2023-04-25T06:14:16;19.80;79.80
47618;DHT22;33336;36.728;-4.414;2023-04-25T06:19:19;19.80;79.60
47618;DHT22;33336;36.728;-4.414;2023-04-25T06:24:21;20.10;79.70
47618;DHT22;33336;36.728;-4.414;2023-04-25T06:29:26;20.30;79.10
47618;DHT22;33336;36.728;-4.414;2023-04-25T06:34:29;20.20;79.20
47618;DHT22;33336;36.728;-4.414;2023-04-25T06:39:32;20.40;78.70
47618;DHT22;33336;36.728;-4.414;2023-04-25T06:44:37;20.60;78.00
47618;DHT22;33336;36.728;-4.414;2023-04-25T06:49:40;20.70;77.50
47618;DHT22;33336;36.728;-4.414;2023-04-25T06:54:43;20.70;77.70
47618;DHT22;33336;36.728;-4.414;2023-04-25T06:59:48;20.40;77.70
47618;DHT22;33336;36.728;-4.414;2023-04-25T07:04:51;20.70;77.50
47618;DHT22;33336;36.728;-4.414;2023-04-25T07:09:54;20.80;77.20
47618;DHT22;33336;36.728;-4.414;2023-04-25T07:14:59;20.70;77.20
47618;DHT22;33336;36.728;-4.414;2023-04-25T07:20:07;20.90;77.20
47618;DHT22;33336;36.728;-4.414;2023-04-25T07:25:11;21.30;76.80
47618;DHT22;33336;36.728;-4.414;2023-04-25T07:30:16;21.50;76.30
47618;DHT22;33336;36.728;-4.414;2023-04-25T07:35:19;21.50;76.40
47618;DHT22;33336;36.728;-4.414;2023-04-25T07:40:22;21.40;77.20
47618;DHT22;33336;36.728;-4.414;2023-04-25T07:45:27;21.60;77.40
47618;DHT22;33336;36.728;-4.414;2023-04-25T07:50:30;21.60;77.90
47618;DHT22;33336;36.728;-4.414;2023-04-25T07:55:33;21.80;78.40
47618;DHT22;33336;36.728;-4.414;2023-04-25T08:00:39;21.90;78.00
47618;DHT22;33336;36.728;-4.414;2023-04-25T08:05:43;21.90;78.00
47618;DHT22;33336;36.728;-4.414;2023-04-25T08:10:46;22.20;77.70
47618;DHT22;33336;36.728;-4.414;2023-04-25T08:15:52;22.80;76.70
47618;DHT22;33336;36.728;-4.414;2023-04-25T08:20:54;22.90;76.90
47618;DHT22;33336;36.728;-4.414;2023-04-25T08:25:57;22.70;77.40
47618;DHT22;33336;36.728;-4.414;2023-04-25T08:31:02;23.00;76.80
47618;DHT22;33336;36.728;-4.414;2023-04-25T08:36:07;23.00;76.80
47618;DHT22;33336;36.728;-4.414;2023-04-25T08:41:11;23.50;76.30
47618;DHT22;33336;36.728;-4.414;2023-04-25T08:46:18;23.50;75.80
47618;DHT22;33336;36.728;-4.414;2023-04-25T08:51:22;23.40;75.90
47618;DHT22;33336;36.728;-4.414;2023-04-25T08:56:27;23.70;75.60
47618;DHT22;33336;36.728;-4.414;2023-04-25T09:01:31;23.90;75.50
47618;DHT22;33336;36.728;-4.414;2023-04-25T09:06:35;24.10;74.70
47618;DHT22;33336;36.728;-4.414;2023-04-25T09:11:38;24.40;74.40
47618;DHT22;33336;36.728;-4.414;2023-04-25T09:17:01;24.30;73.60
47618;DHT22;33336;36.728;-4.414;2023-04-25T09:22:04;24.40;73.20
47618;DHT22;33336;36.728;-4.414;2023-04-25T09:27:09;24.50;72.70
47618;DHT22;33336;36.728;-4.414;2023-04-25T09:32:16;24.80;72.60
47618;DHT22;33336;36.728;-4.414;2023-04-25T09:37:20;25.00;72.30
47618;DHT22;33336;36.728;-4.414;2023-04-25T09:42:24;25.40;72.20
47618;DHT22;33336;36.728;-4.414;2023-04-25T09:47:30;25.30;73.90
47618;DHT22;33336;36.728;-4.414;2023-04-25T09:52:33;25.20;73.80
47618;DHT22;33336;36.728;-4.414;2023-04-25T09:57:36;25.40;78.90
47618;DHT22;33336;36.728;-4.414;2023-04-25T10:02:42;24.80;83.10
47618;DHT22;33336;36.728;-4.414;2023-04-25T10:07:49;23.70;90.00
47618;DHT22;33336;36.728;-4.414;2023-04-25T10:12:54;23.10;90.60
47618;DHT22;33336;36.728;-4.414;2023-04-25T10:18:01;22.60;91.60
47618;DHT22;33336;36.728;-4.414;2023-04-25T10:23:08;22.90;91.70
47618;DHT22;33336;36.728;-4.414;2023-04-25T10:28:14;23.20;91.80
47618;DHT22;33336;36.728;-4.414;2023-04-25T10:33:18;23.20;92.20
47618;DHT22;33336;36.728;-4.414;2023-04-25T10:38:31;23.20;92.60
47618;DHT22;33336;36.728;-4.414;2023-04-25T10:43:36;23.20;92.70
47618;DHT22;33336;36.728;-4.414;2023-04-25T10:48:45;23.70;91.90
47618;DHT22;33336;36.728;-4.414;2023-04-25T10:54:00;23.80;92.00
47618;DHT22;33336;36.728;-4.414;2023-04-25T10:59:05;24.40;91.00
47618;DHT22;33336;36.728;-4.414;2023-04-25T11:04:21;25.20;90.10
47618;DHT22;33336;36.728;-4.414;2023-04-25T11:09:25;24.80;89.70
47618;DHT22;33336;36.728;-4.414;2023-04-25T11:14:29;25.20;89.70
47618;DHT22;33336;36.728;-4.414;2023-04-25T11:19:34;25.20;90.00
47618;DHT22;33336;36.728;-4.414;2023-04-25T11:24:36;25.20;89.40
47618;DHT22;33336;36.728;-4.414;2023-04-25T11:29:40;25.00;88.70
47618;DHT22;33336;36.728;-4.414;2023-04-25T11:34:45;24.80;88.10
47618;DHT22;33336;36.728;-4.414;2023-04-25T11:39:48;25.50;87.70
47618;DHT22;33336;36.728;-4.414;2023-04-25T11:44:51;25.20;88.30
47618;DHT22;33336;36.728;-4.414;2023-04-25T11:49:57;25.30;87.50
47618;DHT22;33336;36.728;-4.414;2023-04-25T11:55:00;24.70;88.80
47618;DHT22;33336;36.728;-4.414;2023-04-25T12:00:11;25.40;86.90
47618;DHT22;33336;36.728;-4.414;2023-04-25T12:05:16;25.20;84.80
47618;DHT22;33336;36.728;-4.414;2023-04-25T12:10:21;25.40;83.60
47618;DHT22;33336;36.728;-4.414;2023-04-25T12:15:24;25.60;83.50
47618;DHT22;33336;36.728;-4.414;2023-04-25T12:20:31;25.90;83.40
47618;DHT22;33336;36.728;-4.414;2023-04-25T12:25:35;25.70;81.80
47618;DHT22;33336;36.728;-4.414;2023-04-25T12:30:53;26.10;83.20
47618;DHT22;33336;36.728;-4.414;2023-04-25T12:35:58;27.00;82.70
47618;DHT22;33336;36.728;-4.414;2023-04-25T12:41:01;26.90;82.50
47618;DHT22;33336;36.728;-4.414;2023-04-25T12:46:04;27.20;79.10
47618;DHT22;33336;36.728;-4.414;2023-04-25T12:51:09;27.40;75.50
47618;DHT22;33336;36.728;-4.414;2023-04-25T12:56:11;27.40;76.90
47618;DHT22;33336;36.728;-4.414;2023-04-25T13:01:15;27.90;74.90
47618;DHT22;33336;36.728;-4.414;2023-04-25T13:06:20;27.80;73.60
47618;DHT22;33336;36.728;-4.414;2023-04-25T13:11:26;28.10;74.40
47618;DHT22;33336;36.728;-4.414;2023-04-25T13:16:29;28.60;75.30
47618;DHT22;33336;36.728;-4.414;2023-04-25T13:21:34;28.50;74.70
47618;DHT22;33336;36.728;-4.414;2023-04-25T13:26:36;28.70;74.20
47618;DHT22;33336;36.728;-4.414;2023-04-25T13:31:40;29.10;74.80
47618;DHT22;33336;36.728;-4.414;2023-04-25T13:36:44;29.10;74.00
47618;DHT22;33336;36.728;-4.414;2023-04-25T13:41:48;28.90;75.50
47618;DHT22;33336;36.728;-4.414;2023-04-25T13:46:51;29.30;73.90
47618;DHT22;33336;36.728;-4.414;2023-04-25T13:51:55;29.10;72.10
47618;DHT22;33336;36.728;-4.414;2023-04-25T13:56:58;29.60;72.20
47618;DHT22;33336;36.728;-4.414;2023-04-25T14:02:01;29.80;70.30
47618;DHT22;33336;36.728;-4.414;2023-04-25T14:07:07;29.60;71.40
47618;DHT22;33336;36.728;-4.414;2023-04-25T14:12:12;29.80;70.90
47618;DHT22;33336;36.728;-4.414;2023-04-25T14:17:15;30.00;69.40
47618;DHT22;33336;36.728;-4.414;2023-04-25T14:22:20;30.40;69.60
47618;DHT22;33336;36.728;-4.414;2023-04-25T14:27:22;30.90;67.30
47618;DHT22;33336;36.728;-4.414;2023-04-25T14:32:26;30.90;68.00
47618;DHT22;33336;36.728;-4.414;2023-04-25T14:37:30;30.70;67.30
47618;DHT22;33336;36.728;-4.414;2023-04-25T14:42:34;30.70;66.80
47618;DHT22;33336;36.728;-4.414;2023-04-25T14:47:37;30.20;68.00
47618;DHT22;33336;36.728;-4.414;2023-04-25T14:52:45;31.20;68.20
47618;DHT22;33336;36.728;-4.414;2023-04-25T14:57:49;31.90;68.40
47618;DHT22;33336;36.728;-4.414;2023-04-25T15:02:52;32.30;67.50
47618;DHT22;33336;36.728;-4.414;2023-04-25T15:07:56;31.80;66.20
47618;DHT22;33336;36.728;-4.414;2023-04-25T15:13:00;31.90;67.50
47618;DHT22;33336;36.728;-4.414;2023-04-25T15:18:03;32.70;67.00
47618;DHT22;33336;36.728;-4.414;2023-04-25T15:23:10;31.90;68.80
47618;DHT22;33336;36.728;-4.414;2023-04-25T15:28:13;31.30;68.30
47618;DHT22;33336;36.728;-4.414;2023-04-25T15:33:17;31.40;70.30
47618;DHT22;33336;36.728;-4.414;2023-04-25T15:38:21;32.10;69.80
47618;DHT22;33336;36.728;-4.414;2023-04-25T15:43:25;32.40;68.10
47618;DHT22;33336;36.728;-4.414;2023-04-25T15:48:28;32.80;68.40
47618;DHT22;33336;36.728;-4.414;2023-04-25T15:53:35;33.00;68.80
47618;DHT22;33336;36.728;-4.414;2023-04-25T15:58:37;31.80;69.90
47618;DHT22;33336;36.728;-4.414;2023-04-25T16:03:40;32.20;68.80
47618;DHT22;33336;36.728;-4.414;2023-04-25T16:08:44;33.50;68.30
47618;DHT22;33336;36.728;-4.414;2023-04-25T16:13:47;34.70;67.20
47618;DHT22;33336;36.728;-4.414;2023-04-25T16:18:50;33.90;65.10
47618;DHT22;33336;36.728;-4.414;2023-04-25T16:23:55;32.30;67.10
47618;DHT22;33336;36.728;-4.414;2023-04-25T16:28:58;31.60;67.80
47618;DHT22;33336;36.728;-4.414;2023-04-25T16:34:01;32.00;65.80
47618;DHT22;33336;36.728;-4.414;2023-04-25T16:39:06;33.50;64.90
47618;DHT22;33336;36.728;-4.414;2023-04-25T16:44:10;32.90;64.10
47618;DHT22;33336;36.728;-4.414;2023-04-25T16:49:20;34.00;64.10
47618;DHT22;33336;36.728;-4.414;2023-04-25T16:54:25;33.10;66.70
47618;DHT22;33336;36.728;-4.414;2023-04-25T16:59:27;33.40;64.20
47618;DHT22;33336;36.728;-4.414;2023-04-25T17:04:31;31.30;68.30
47618;DHT22;33336;36.728;-4.414;2023-04-25T17:09:35;33.20;65.40
47618;DHT22;33336;36.728;-4.414;2023-04-25T17:14:39;33.30;64.40
47618;DHT22;33336;36.728;-4.414;2023-04-25T17:19:43;33.50;66.10
47618;DHT22;33336;36.728;-4.414;2023-04-25T17:24:49;32.80;65.10
47618;DHT22;33336;36.728;-4.414;2023-04-25T17:29:51;32.70;66.10
47618;DHT22;33336;36.728;-4.414;2023-04-25T17:34:54;31.30;66.60
47618;DHT22;33336;36.728;-4.414;2023-04-25T17:39:59;31.60;66.70
47618;DHT22;33336;36.728;-4.414;2023-04-25T17:45:06;31.60;67.20
47618;DHT22;33336;36.728;-4.414;2023-04-25T17:50:09;30.20;68.60
47618;DHT22;33336;36.728;-4.414;2023-04-25T17:55:15;29.80;68.90
47618;DHT22;33336;36.728;-4.414;2023-04-25T18:00:18;30.30;68.90
47618;DHT22;33336;36.728;-4.414;2023-04-25T18:05:22;29.60;68.70
47618;DHT22;33336;36.728;-4.414;2023-04-25T18:10:27;30.10;70.00
47618;DHT22;33336;36.728;-4.414;2023-04-25T18:21:34;30.50;67.60
47618;DHT22;33336;36.728;-4.414;2023-04-25T18:26:46;28.90;70.10
47618;DHT22;33336;36.728;-4.414;2023-04-25T18:31:49;29.20;70.10
47618;DHT22;33336;36.728;-4.414;2023-04-25T18:36:57;29.00;70.40
47618;DHT22;33336;36.728;-4.414;2023-04-25T18:42:02;29.50;70.70
47618;DHT22;33336;36.728;-4.414;2023-04-25T18:47:05;29.80;71.00
47618;DHT22;33336;36.728;-4.414;2023-04-25T18:52:08;30.30;70.30
47618;DHT22;33336;36.728;-4.414;2023-04-25T18:57:14;30.20;69.70
47618;DHT22;33336;36.728;-4.414;2023-04-25T19:02:18;28.80;72.40
47618;DHT22;33336;36.728;-4.414;2023-04-25T19:07:23;29.10;71.90
47618;DHT22;33336;36.728;-4.414;2023-04-25T19:12:29;28.80;71.90
47618;DHT22;33336;36.728;-4.414;2023-04-25T19:17:34;28.80;72.40
47618;DHT22;33336;36.728;-4.414;2023-04-25T19:22:37;28.80;72.00
47618;DHT22;33336;36.728;-4.414;2023-04-25T19:27:41;28.60;72.50
47618;DHT22;33336;36.728;-4.414;2023-04-25T19:32:44;28.40;72.90
47618;DHT22;33336;36.728;-4.414;2023-04-25T19:37:47;28.30;72.50
47618;DHT22;33336;36.728;-4.414;2023-04-25T19:42:51;26.90;74.20
47618;DHT22;33336;36.728;-4.414;2023-04-25T19:47:55;26.60;75.20
47618;DHT22;33336;36.728;-4.414;2023-04-25T19:52:58;26.30;77.10
47618;DHT22;33336;36.728;-4.414;2023-04-25T19:58:03;26.50;76.90
47618;DHT22;33336;36.728;-4.414;2023-04-25T20:03:07;26.60;76.60
47618;DHT22;33336;36.728;-4.414;2023-04-25T20:08:11;26.50;77.10
47618;DHT22;33336;36.728;-4.414;2023-04-25T20:13:15;26.00;78.10
47618;DHT22;33336;36.728;-4.414;2023-04-25T20:18:19;25.90;78.30
47618;DHT22;33336;36.728;-4.414;2023-04-25T20:23:22;25.80;78.00
47618;DHT22;33336;36.728;-4.414;2023-04-25T20:28:26;25.20;78.80
47618;DHT22;33336;36.728;-4.414;2023-04-25T20:33:29;25.10;79.40
47618;DHT22;33336;36.728;-4.414;2023-04-25T20:38:33;24.70;80.70
47618;DHT22;33336;36.728;-4.414;2023-04-25T20:43:37;25.10;79.70
47618;DHT22;33336;36.728;-4.414;2023-04-25T20:48:41;24.80;80.40
47618;DHT22;33336;36.728;-4.414;2023-04-25T20:53:44;24.10;83.10
47618;DHT22;33336;36.728;-4.414;2023-04-25T20:58:48;23.90;83.80
47618;DHT22;33336;36.728;-4.414;2023-04-25T21:03:52;24.50;82.20
47618;DHT22;33336;36.728;-4.414;2023-04-25T21:08:56;24.90;81.10
47618;DHT22;33336;36.728;-4.414;2023-04-25T21:14:00;25.00;81.20
47618;DHT22;33336;36.728;-4.414;2023-04-25T21:19:04;24.50;82.20
47618;DHT22;33336;36.728;-4.414;2023-04-25T21:24:07;24.60;82.10
47618;DHT22;33336;36.728;-4.414;2023-04-25T21:29:12;24.80;81.80
47618;DHT22;33336;36.728;-4.414;2023-04-25T21:34:15;24.80;81.90
47618;DHT22;33336;36.728;-4.414;2023-04-25T21:39:18;24.80;82.20
47618;DHT22;33336;36.728;-4.414;2023-04-25T21:44:22;24.80;82.20
47618;DHT22;33336;36.728;-4.414;2023-04-25T21:49:26;24.60;82.40
47618;DHT22;33336;36.728;-4.414;2023-04-25T21:54:29;24.30;82.60
47618;DHT22;33336;36.728;-4.414;2023-04-25T21:59:33;24.00;83.10
47618;DHT22;33336;36.728;-4.414;2023-04-25T22:04:37;23.80;83.50
47618;DHT22;33336;36.728;-4.414;2023-04-25T22:09:40;23.70;83.80
47618;DHT22;33336;36.728;-4.414;2023-04-25T22:14:45;23.60;82.70
47618;DHT22;33336;36.728;-4.414;2023-04-25T22:19:49;23.40;83.90
47618;DHT22;33336;36.728;-4.414;2023-04-25T22:24:52;23.30;82.80
47618;DHT22;33336;36.728;-4.414;2023-04-25T22:29:57;23.60;82.00
47618;DHT22;33336;36.728;-4.414;2023-04-25T22:35:01;23.90;81.10
47618;DHT22;33336;36.728;-4.414;2023-04-25T22:40:05;23.80;79.40
47618;DHT22;33336;36.728;-4.414;2023-04-25T22:45:11;23.90;80.30
47618;DHT22;33336;36.728;-4.414;2023-04-25T22:50:14;23.90;79.60
47618;DHT22;33336;36.728;-4.414;2023-04-25T22:55:17;23.90;80.00
47618;DHT22;33336;36.728;-4.414;2023-04-25T23:00:21;23.90;81.10
47618;DHT22;33336;36.728;-4.414;2023-04-25T23:05:26;23.90;81.40
47618;DHT22;33336;36.728;-4.414;2023-04-25T23:10:29;23.90;82.00
47618;DHT22;33336;36.728;-4.414;2023-04-25T23:15:33;23.70;82.50
47618;DHT22;33336;36.728;-4.414;2023-04-25T23:20:36;23.40;78.60
47618;DHT22;33336;36.728;-4.414;2023-04-25T23:25:39;23.40;79.40
47618;DHT22;33336;36.728;-4.414;2023-04-25T23:30:43;23.50;81.20
47618;DHT22;33336;36.728;-4.414;2023-04-25T23:35:46;23.50;81.00
47618;DHT22;33336;36.728;-4.414;2023-04-25T23:40:49;23.10;82.30
47618;DHT22;33336;36.728;-4.414;2023-04-25T23:45:53;23.10;82.00
47618;DHT22;33336;36.728;-4.414;2023-04-25T23:50:57;23.00;83.50
47618;DHT22;33336;36.728;-4.414;2023-04-25T23:56:01;23.20;82.50
